Time;durP1;ratioP1;P1;durP2;ratioP2;P2;SDS_P1;SDS_P2;PMS_P1;PMS_P2;Temp;Humidity;BMP_temperature;BMP_pressure;BME280_temperature;BME280_humidity;BME280_pressure;Samples;Min_cycle;Max_cycle;Signal;HPM_P1;HPM_P2
2022/10/05 00:01:44;;;;;;;0.00;0.00;;;;;;;8.95;100.00;99189.00;4988037;28;20232;-62
2022/10/05 00:04:15;;;;;;;0.00;0.00;;;;;;;9.05;100.00;99180.44;4985088;28;20280;-62
2022/10/05 00:06:42;;;;;;;0.00;0.00;;;;;;;8.99;100.00;99173.97;4986034;28;20229;-62
2022/10/05 00:09:16;;;;;;;0.00;0.00;;;;;;;9.03;100.00;99182.34;4982898;28;20291;-62
2022/10/05 00:11:44;;;;;;;0.00;0.00;;;;;;;8.97;100.00;99171.47;4987295;28;20240;-63
2022/10/05 00:14:16;;;;;;;0.00;0.00;;;;;;;9.00;100.00;99175.63;4984799;28;20281;-63
2022/10/05 00:16:42;;;;;;;0.00;0.00;;;;;;;8.99;100.00;99179.16;4986600;28;20233;-63
2022/10/05 00:19:17;;;;;;;0.00;0.00;;;;;;;9.04;100.00;99176.97;4984209;28;20320;-63
2022/10/05 00:21:44;;;;;;;0.00;0.00;;;;;;;8.99;100.00;99166.16;4985483;28;20243;-63
2022/10/05 00:24:11;;;;;;;0.00;0.00;;;;;;;9.04;100.00;99176.97;4982402;28;20311;-63
2022/10/05 00:26:39;;;;;;;0.00;0.00;;;;;;;9.16;100.00;99177.75;4989249;28;20284;-63
2022/10/05 00:29:19;;;;;;;0.00;0.00;;;;;;;9.13;100.00;99176.22;4983467;28;20718;-63
2022/10/05 00:31:47;;;;;;;0.00;0.00;;;;;;;9.05;100.00;99176.03;4958948;28;20234;-63
2022/10/05 00:34:13;;;;;;;0.00;0.00;;;;;;;9.14;100.00;99180.47;4965929;28;20224;-63
2022/10/05 00:36:40;;;;;;;0.00;0.00;;;;;;;9.12;100.00;99181.56;4986133;28;20307;-63
2022/10/05 00:39:07;;;;;;;0.00;0.00;;;;;;;9.16;100.00;99186.38;4966427;28;20243;-63
2022/10/05 00:41:52;;;;;;;0.00;0.00;;;;;;;9.19;100.00;99190.53;4969694;28;20772;-63
2022/10/05 00:44:31;;;;;;;0.00;0.00;;;;;;;9.08;100.00;99186.19;4966579;28;20237;-63
2022/10/05 00:47:08;;;;;;;0.00;0.00;;;;;;;9.20;100.00;99186.13;4982470;28;20603;-63
2022/10/05 00:49:52;;;;;;;0.00;0.00;;;;;;;9.11;100.00;99191.16;4989373;28;20243;-63
2022/10/05 00:52:30;;;;;;;0.00;0.00;;;;;;;9.11;100.00;99193.75;4965965;28;20259;-63
2022/10/05 00:55:03;;;;;;;0.00;0.00;;;;;;;9.01;100.00;99196.31;4956507;28;20244;-63
2022/10/05 00:57:43;;;;;;;0.00;0.00;;;;;;;8.93;100.00;99195.31;4955784;28;20245;-63
2022/10/05 01:00:13;;;;;;;0.00;0.00;;;;;;;8.97;100.00;99201.91;4966396;28;20237;-63
2022/10/05 01:02:51;;;;;;;0.00;0.00;;;;;;;8.90;100.00;99198.16;4985166;28;20248;-63
2022/10/05 01:05:29;;;;;;;0.00;0.00;;;;;;;8.81;100.00;99190.16;4965826;28;20291;-63
2022/10/05 01:08:05;;;;;;;0.00;0.00;;;;;;;8.91;100.00;99192.00;4985694;28;20228;-63
2022/10/05 01:10:37;;;;;;;0.00;0.00;;;;;;;9.03;100.00;99187.53;4981632;28;20234;-63
2022/10/05 01:13:15;;;;;;;0.00;0.00;;;;;;;8.98;100.00;99180.13;4954290;28;20251;-63
2022/10/05 01:15:49;;;;;;;0.00;0.00;;;;;;;8.94;100.00;99187.34;4984669;28;20234;-63
2022/10/05 01:18:19;;;;;;;0.00;0.00;;;;;;;9.00;100.00;99189.44;4955700;28;25666;-63
2022/10/05 01:20:57;;;;;;;0.00;0.00;;;;;;;9.13;100.00;99189.25;4968208;28;20272;-63
2022/10/05 01:23:51;;;;;;;0.00;0.00;;;;;;;9.07;100.00;99187.16;4982664;28;20233;-62
2022/10/05 01:26:33;;;;;;;0.00;0.00;;;;;;;9.07;100.00;99191.53;4984118;28;20230;-63
2022/10/05 01:29:10;;;;;;;0.00;0.00;;;;;;;9.05;100.00;99186.44;4955242;28;20572;-63
2022/10/05 01:31:44;;;;;;;0.00;0.00;;;;;;;9.03;100.00;99182.34;4969841;28;20659;-63
2022/10/05 01:34:22;;;;;;;0.00;0.00;;;;;;;8.98;100.00;99187.94;4956401;28;20233;-63
2022/10/05 01:36:55;;;;;;;0.00;0.00;;;;;;;8.93;100.00;99185.69;4967879;28;20551;-63
2022/10/05 01:39:31;;;;;;;0.00;0.00;;;;;;;8.91;100.00;99177.19;4984174;28;20586;-63
2022/10/05 01:42:05;;;;;;;0.00;0.00;;;;;;;8.81;100.00;99174.53;4954877;28;21214;-64
2022/10/05 01:44:41;;;;;;;0.00;0.00;;;;;;;8.76;100.00;99173.22;4968686;28;20281;-63
2022/10/05 01:47:12;;;;;;;0.00;0.00;;;;;;;8.70;100.00;99164.97;4982759;28;20723;-63
2022/10/05 01:49:45;;;;;;;0.00;0.00;;;;;;;8.71;100.00;99165.81;4968652;28;20233;-63
2022/10/05 01:52:27;;;;;;;0.00;0.00;;;;;;;8.73;100.00;99168.28;4982744;28;20728;-63
2022/10/05 01:55:09;;;;;;;0.00;0.00;;;;;;;8.66;100.00;99160.16;4968642;28;20236;-63
2022/10/05 01:57:50;;;;;;;0.00;0.00;;;;;;;8.68;100.00;99164.28;4966160;28;20236;-63
2022/10/05 02:00:19;;;;;;;0.00;0.00;;;;;;;8.79;100.00;99162.56;4982923;28;20245;-63
2022/10/05 02:02:50;;;;;;;0.00;0.00;;;;;;;8.79;100.00;99165.19;4986618;28;20241;-63
2022/10/05 02:05:21;;;;;;;0.00;0.00;;;;;;;8.76;100.00;99160.22;4959616;28;20273;-63
2022/10/05 02:07:53;;;;;;;0.00;0.00;;;;;;;8.80;100.00;99164.22;4958795;28;20570;-63
2022/10/05 02:10:25;;;;;;;0.00;0.00;;;;;;;8.76;100.00;99163.66;4982324;28;20243;-63
2022/10/05 02:12:59;;;;;;;0.00;0.00;;;;;;;8.73;100.00;99156.09;4983748;28;20892;-63
2022/10/05 02:15:32;;;;;;;0.00;0.00;;;;;;;8.78;100.00;99166.97;4969177;28;20220;-63
2022/10/05 02:18:04;;;;;;;0.00;0.00;;;;;;;8.81;100.00;99164.09;4977278;28;20601;-63
2022/10/05 02:20:34;;;;;;;0.00;0.00;;;;;;;8.76;100.00;99168.88;4971438;28;20232;-63
2022/10/05 02:23:07;;;;;;;0.00;0.00;;;;;;;8.86;100.00;99166.31;4984634;28;20230;-63
2022/10/05 02:25:37;;;;;;;0.00;0.00;;;;;;;8.81;100.00;99169.31;4987417;28;20233;-63
2022/10/05 02:28:09;;;;;;;0.00;0.00;;;;;;;8.82;100.00;99172.72;4968445;28;20221;-63
2022/10/05 02:30:44;;;;;;;0.00;0.00;;;;;;;8.73;100.00;99176.94;4971196;28;20229;-63
2022/10/05 02:33:21;;;;;;;0.00;0.00;;;;;;;8.71;100.00;99176.22;4985022;28;20230;-63
2022/10/05 02:35:47;;;;;;;0.00;0.00;;;;;;;8.90;100.00;99169.50;4957364;28;20264;-63
2022/10/05 02:38:25;;;;;;;0.00;0.00;;;;;;;8.95;100.00;99182.97;4968092;28;20228;-63
2022/10/05 02:41:02;;;;;;;0.00;0.00;;;;;;;9.06;100.00;99184.69;4959096;28;20772;-63
2022/10/05 02:43:39;;;;;;;0.00;0.00;;;;;;;9.11;100.00;99185.94;4957960;28;20243;-63
2022/10/05 02:46:19;;;;;;;0.00;0.00;;;;;;;9.16;100.00;99188.19;4967452;28;20251;-63
2022/10/05 02:48:59;;;;;;;0.00;0.00;;;;;;;9.11;100.00;99193.75;4970735;28;20228;-63
2022/10/05 02:51:29;;;;;;;0.00;0.00;;;;;;;9.11;100.00;99183.34;4987021;28;20316;-63
2022/10/05 02:54:07;;;;;;;0.00;0.00;;;;;;;9.16;100.00;99186.38;4969791;28;20295;-63
2022/10/05 02:56:42;;;;;;;0.00;0.00;;;;;;;9.40;100.00;99189.69;4971142;28;20268;-63
2022/10/05 02:59:14;;;;;;;0.00;0.00;;;;;;;9.28;100.00;99184.56;4960061;28;20233;-63
2022/10/05 03:01:50;;;;;;;0.00;0.00;;;;;;;9.27;100.00;99175.09;4970875;28;20719;-63
2022/10/05 03:04:28;;;;;;;0.00;0.00;;;;;;;9.15;100.00;99179.53;4985552;28;20241;-63
2022/10/05 03:07:04;;;;;;;0.00;0.00;;;;;;;9.16;100.00;99175.16;4969702;28;20321;-63
2022/10/05 03:09:38;;;;;;;0.00;0.00;;;;;;;9.07;100.00;99166.31;4968833;28;20234;-63
2022/10/05 03:12:12;;;;;;;0.00;0.00;;;;;;;8.98;100.00;99161.91;4957042;28;20686;-63
2022/10/05 03:14:48;;;;;;;0.00;0.00;;;;;;;8.94;100.00;99163.09;4970074;28;20818;-63
2022/10/05 03:17:20;;;;;;;0.00;0.00;;;;;;;8.84;100.00;99163.84;4984411;28;20578;-63
2022/10/05 03:20:11;;;;;;;0.00;0.00;;;;;;;8.82;100.00;99162.31;4960416;28;20246;-63
2022/10/05 03:22:48;;;;;;;0.00;0.00;;;;;;;8.73;100.00;99156.09;4983795;28;20271;-63
2022/10/05 03:25:46;;;;;;;0.00;0.00;;;;;;;8.69;100.00;99147.72;4984495;28;20635;-63
2022/10/05 03:28:22;;;;;;;0.00;0.00;;;;;;;8.64;100.00;99149.03;4981203;28;20221;-63
2022/10/05 03:30:59;;;;;;;0.00;0.00;;;;;;;8.59;100.00;99146.00;4976504;28;20309;-63
2022/10/05 03:33:35;;;;;;;0.00;0.00;;;;;;;8.60;100.00;99130.25;4984223;28;20225;-63
2022/10/05 03:36:12;;;;;;;0.00;0.00;;;;;;;8.57;100.00;99133.09;4968957;28;20244;-63
2022/10/05 03:38:44;;;;;;;0.00;0.00;;;;;;;8.53;100.00;99126.50;4975071;28;20291;-63
2022/10/05 03:41:20;;;;;;;0.00;0.00;;;;;;;8.71;100.00;99130.19;4966725;28;20214;-63
2022/10/05 03:43:59;;;;;;;0.07;0.07;;;;;;;8.61;100.00;99126.69;4973016;28;20687;-63
2022/10/05 03:46:41;;;;;;;0.00;0.00;;;;;;;8.56;100.00;99118.44;4956673;28;20234;-63
2022/10/05 03:49:19;;;;;;;0.00;0.00;;;;;;;8.56;100.00;99123.63;4954962;28;20247;-63
2022/10/05 03:51:50;;;;;;;0.00;0.00;;;;;;;8.46;100.00;99127.94;4985909;28;20769;-63
2022/10/05 03:54:22;;;;;;;0.00;0.00;;;;;;;8.34;100.00;99117.56;4966247;28;20245;-63
2022/10/05 03:56:53;;;;;;;0.00;0.00;;;;;;;8.40;100.00;99122.28;4976292;28;20231;-63
2022/10/05 03:59:25;;;;;;;0.00;0.00;;;;;;;8.33;100.00;99115.91;4965761;28;20229;-63
2022/10/05 04:01:56;;;;;;;0.00;0.00;;;;;;;8.31;100.00;99119.56;4973995;28;20320;-63
2022/10/05 04:04:32;;;;;;;0.00;0.00;;;;;;;8.32;100.00;99114.28;4982237;28;20708;-63
2022/10/05 04:07:01;;;;;;;0.00;0.00;;;;;;;8.24;100.00;99108.84;4966594;28;20292;-63
2022/10/05 04:09:35;;;;;;;0.00;0.00;;;;;;;8.20;100.00;99104.84;4968995;28;20233;-63
2022/10/05 04:12:09;;;;;;;0.00;0.00;;;;;;;8.20;100.00;99108.25;4953658;28;20327;-63
2022/10/05 04:14:41;;;;;;;0.00;0.00;;;;;;;8.20;100.00;99107.44;4968610;28;20237;-63
2022/10/05 04:17:11;;;;;;;0.00;0.00;;;;;;;8.20;100.00;99108.25;4965609;28;20241;-63
2022/10/05 04:19:45;;;;;;;0.00;0.00;;;;;;;8.14;100.00;99106.16;4968701;28;20697;-63
2022/10/05 04:22:19;;;;;;;0.00;0.00;;;;;;;8.11;100.00;99101.19;4983047;28;20236;-63
2022/10/05 04:24:53;;;;;;;0.00;0.00;;;;;;;8.20;100.00;99102.25;4968617;28;20586;-63
2022/10/05 04:27:23;;;;;;;0.00;0.00;;;;;;;8.12;100.00;99097.66;4964583;28;20257;-63
2022/10/05 04:29:57;;;;;;;0.00;0.00;;;;;;;8.07;100.00;99097.19;4968783;28;20237;-63
2022/10/05 04:32:35;;;;;;;0.00;0.00;;;;;;;8.10;100.00;99108.19;4981275;28;20228;-63
2022/10/05 04:35:30;;;;;;;0.00;0.00;;;;;;;8.09;100.00;99109.13;4966301;28;20235;-63
2022/10/05 04:38:10;;;;;;;0.00;0.00;;;;;;;8.24;100.00;99112.28;4981969;28;20832;-63
2022/10/05 04:40:46;;;;;;;0.00;0.00;;;;;;;8.11;100.00;99114.19;4967921;28;20224;-63
2022/10/05 04:43:23;;;;;;;0.00;0.00;;;;;;;8.13;100.00;99117.50;4964704;28;20229;-63
2022/10/05 04:46:10;;;;;;;0.00;0.00;;;;;;;8.05;100.00;99110.34;4968415;28;20227;-63
2022/10/05 04:48:56;;;;;;;0.00;0.00;;;;;;;8.11;100.00;99122.84;4965740;28;20221;-63
2022/10/05 04:51:35;;;;;;;0.00;0.00;;;;;;;7.97;100.00;99123.13;4964674;28;20252;-63
2022/10/05 04:54:12;;;;;;;0.00;0.00;;;;;;;7.93;100.00;99121.69;4981306;28;20733;-63
2022/10/05 04:56:44;;;;;;;0.00;0.00;;;;;;;7.92;100.00;99126.09;4968245;28;20239;-63
2022/10/05 04:59:35;;;;;;;0.00;0.00;;;;;;;7.94;100.00;99121.59;4965714;28;20233;-63
2022/10/05 05:02:12;;;;;;;0.00;0.00;;;;;;;7.89;100.00;99125.50;4981287;28;20757;-63
2022/10/05 05:04:55;;;;;;;0.00;0.00;;;;;;;7.82;100.00;99130.38;4968178;28;20633;-63
2022/10/05 05:07:40;;;;;;;0.00;0.00;;;;;;;7.90;100.00;99132.34;4965799;28;20228;-63
2022/10/05 05:10:31;;;;;;;0.00;0.00;;;;;;;7.85;100.00;99137.06;4982864;28;20237;-63
2022/10/05 05:13:12;;;;;;;0.00;0.00;;;;;;;7.73;100.00;99131.88;4964885;28;20236;-63
2022/10/05 05:15:46;;;;;;;0.00;0.00;;;;;;;7.76;100.00;99131.66;4967088;28;20240;-63
2022/10/05 05:18:37;;;;;;;0.00;0.00;;;;;;;7.79;100.00;99134.00;4983291;28;20228;-63
2022/10/05 05:21:14;;;;;;;0.00;0.00;;;;;;;7.80;100.00;99135.66;4964751;28;20224;-63
2022/10/05 05:23:50;;;;;;;0.00;0.00;;;;;;;7.72;100.00;99140.63;4968074;28;20600;-63
2022/10/05 05:26:27;;;;;;;0.00;0.00;;;;;;;7.71;100.00;99132.97;4964918;28;20240;-63
2022/10/05 05:29:04;;;;;;;0.00;0.00;;;;;;;7.64;100.00;99137.81;4968839;28;20233;-63
2022/10/05 05:31:43;;;;;;;0.00;0.00;;;;;;;7.77;100.00;99135.91;4965675;28;20243;-63
2022/10/05 05:34:21;;;;;;;0.00;0.00;;;;;;;7.77;100.00;99135.09;4970544;28;20238;-63
2022/10/05 05:37:00;;;;;;;0.07;0.07;;;;;;;7.78;100.00;99139.34;4967324;28;20295;-63
2022/10/05 05:39:39;;;;;;;0.00;0.00;;;;;;;7.76;100.00;99146.44;4965843;28;20312;-63
2022/10/05 05:42:20;;;;;;;0.00;0.00;;;;;;;7.78;100.00;99142.75;4965250;28;20224;-63
2022/10/05 05:44:50;;;;;;;0.00;0.00;;;;;;;7.81;100.00;99149.50;4984218;28;20701;-63
2022/10/05 05:47:20;;;;;;;0.00;0.00;;;;;;;7.82;100.00;99158.94;4964580;28;20268;-63
2022/10/05 05:50:10;;;;;;;0.07;0.07;;;;;;;7.83;100.00;99160.59;4971364;28;20316;-63
2022/10/05 05:52:42;;;;;;;0.03;0.03;;;;;;;7.85;100.00;99166.50;4968532;28;20704;-63
2022/10/05 05:55:20;;;;;;;0.00;0.00;;;;;;;7.85;100.00;99161.31;4986224;28;20287;-63
2022/10/05 05:57:50;;;;;;;0.00;0.00;;;;;;;7.86;100.00;99172.50;4961168;28;20352;-63
2022/10/05 06:00:21;;;;;;;0.00;0.00;;;;;;;7.90;100.00;99171.34;4968047;28;20245;-63
2022/10/05 06:03:00;;;;;;;0.00;0.00;;;;;;;8.04;100.00;99178.88;4958078;28;20745;-63
2022/10/05 06:05:31;;;;;;;0.00;0.00;;;;;;;7.98;100.00;99174.16;4968060;28;20233;-63
2022/10/05 06:08:06;;;;;;;0.00;0.00;;;;;;;7.96;100.00;99176.88;4968738;28;20230;-63
2022/10/05 06:10:41;;;;;;;0.00;0.00;;;;;;;8.03;100.00;99181.59;4971384;28;20248;-63
2022/10/05 06:13:16;;;;;;;0.00;0.00;;;;;;;8.08;100.00;99174.25;4961298;28;20236;-63
2022/10/05 06:15:48;;;;;;;0.00;0.00;;;;;;;8.08;100.00;99189.84;4970586;28;20578;-63
2022/10/05 06:18:19;;;;;;;0.00;0.00;;;;;;;8.09;100.00;99184.53;4967897;28;20264;-63
2022/10/05 06:20:53;;;;;;;0.00;0.00;;;;;;;8.13;100.00;99183.34;4969673;28;20257;-63
2022/10/05 06:23:24;;;;;;;0.00;0.00;;;;;;;8.16;100.00;99184.88;4974883;28;20241;-63
2022/10/05 06:26:11;;;;;;;0.00;0.00;;;;;;;8.20;100.00;99185.47;4973036;28;20323;-63
2022/10/05 06:28:41;;;;;;;0.00;0.00;;;;;;;8.22;100.00;99184.38;4984291;28;20311;-63
2022/10/05 06:31:20;;;;;;;0.00;0.00;;;;;;;8.22;100.00;99197.38;4984464;28;20312;-63
2022/10/05 06:33:52;;;;;;;0.00;0.00;;;;;;;8.24;100.00;99185.09;4977999;28;20283;-63
2022/10/05 06:36:40;;;;;;;0.00;0.00;;;;;;;8.25;100.00;99191.13;4968569;28;20224;-63
2022/10/05 06:39:55;;;;;;;0.00;0.00;;;;;;;8.30;100.00;99204.59;4968140;28;20229;-63
2022/10/05 06:42:43;;;;;;;0.00;0.00;;;;;;;8.34;100.00;99205.16;4914569;29;20239;-63
2022/10/05 06:45:30;;;;;;;0.00;0.00;;;;;;;8.40;100.00;99208.13;4899672;29;20798;-63
2022/10/05 06:48:14;;;;;;;0.00;0.00;;;;;;;8.54;100.00;99208.81;4960080;28;20291;-63
2022/10/05 06:51:11;;;;;;;0.00;0.00;;;;;;;8.68;100.00;99203.31;4971884;28;20236;-63
2022/10/05 06:53:55;;;;;;;0.00;0.00;;;;;;;8.80;100.00;99204.09;4969854;28;20253;-63
2022/10/05 06:56:28;;;;;;;0.00;0.00;;;;;;;8.85;100.00;99206.31;4985622;28;20237;-63
2022/10/05 06:59:05;;;;;;;0.00;0.00;;;;;;;8.89;100.00;99205.13;4969713;28;21228;-63
2022/10/05 07:01:44;;;;;;;0.00;0.00;;;;;;;8.91;100.00;99203.22;4967357;28;20230;-64
2022/10/05 07:04:28;;;;;;;0.00;0.00;;;;;;;8.91;100.00;99208.44;4984130;28;20232;-64
2022/10/05 07:06:59;;;;;;;0.00;0.00;;;;;;;8.94;100.00;99212.56;4987794;28;20240;-64
2022/10/05 07:09:41;;;;;;;0.00;0.00;;;;;;;8.99;100.00;99211.22;4984529;28;20605;-64
2022/10/05 07:12:34;;;;;;;0.00;0.00;;;;;;;8.99;100.00;99211.22;4966055;28;20236;-64
2022/10/05 07:15:19;;;;;;;0.00;0.00;;;;;;;9.00;100.00;99209.47;4934252;28;20232;-64
2022/10/05 07:17:59;;;;;;;0.00;0.00;;;;;;;9.04;100.00;99215.22;4986880;28;20291;-64
2022/10/05 07:20:32;;;;;;;0.00;0.00;;;;;;;9.08;100.00;99204.41;4984625;28;20236;-64
2022/10/05 07:23:32;;;;;;;0.00;0.00;;;;;;;9.14;100.00;99203.09;4982872;28;20241;-63
2022/10/05 07:26:05;;;;;;;0.00;0.00;;;;;;;9.26;100.00;99209.06;4963091;28;20284;-63
2022/10/05 07:28:43;;;;;;;0.00;0.00;;;;;;;9.43;100.00;99202.47;4959217;28;20250;-65
2022/10/05 07:31:19;;;;;;;0.00;0.00;;;;;;;9.44;100.00;99215.34;4965738;28;20288;-65
2022/10/05 07:33:53;;;;;;;0.00;0.00;;;;;;;9.50;100.00;99211.41;4968863;28;20324;-64
2022/10/05 07:39:20;;;;;;;0.00;0.00;;;;;;;9.65;100.00;99214.50;4981860;28;20311;-65
2022/10/05 07:41:53;;;;;;;0.00;0.00;;;;;;;9.74;100.00;99220.69;4970459;28;20236;-66
2022/10/05 07:44:26;;;;;;;0.00;0.00;;;;;;;9.83;100.00;99219.09;4965417;28;20622;-66
2022/10/05 07:46:58;;;;;;;0.00;0.00;;;;;;;9.96;100.00;99216.25;4969057;28;20229;-66
2022/10/05 07:49:36;;;;;;;0.00;0.00;;;;;;;10.09;100.00;99226.44;4973300;28;20238;-66
2022/10/05 07:52:10;;;;;;;0.00;0.00;;;;;;;10.18;100.00;99226.47;4965908;28;20649;-66
2022/10/05 07:54:47;;;;;;;0.00;0.00;;;;;;;10.32;100.00;99224.44;4969346;28;20221;-66
2022/10/05 07:57:24;;;;;;;0.00;0.00;;;;;;;10.41;100.00;99234.13;4974434;28;20233;-66
2022/10/05 08:00:00;;;;;;;0.00;0.00;;;;;;;10.54;100.00;99233.03;4969556;28;20233;-66
2022/10/05 08:02:34;;;;;;;0.00;0.00;;;;;;;10.71;100.00;99234.94;4981979;28;20586;-66
2022/10/05 08:05:05;;;;;;;0.00;0.00;;;;;;;10.81;100.00;99221.91;4984225;28;20226;-66
2022/10/05 08:07:34;;;;;;;0.00;0.00;;;;;;;10.97;100.00;99223.97;4985014;28;20292;-66
2022/10/05 08:10:15;;;;;;;0.00;0.00;;;;;;;11.03;100.00;99222.59;4983817;28;20237;-66
2022/10/05 08:12:54;;;;;;;0.00;0.00;;;;;;;11.16;100.00;99223.09;4986266;28;20637;-66
2022/10/05 08:15:25;;;;;;;0.00;0.00;;;;;;;11.28;100.00;99221.19;4983878;28;20246;-66
2022/10/05 08:17:59;;;;;;;0.00;0.00;;;;;;;11.39;100.00;99221.97;4986378;28;20233;-66
2022/10/05 08:20:37;;;;;;;0.00;0.00;;;;;;;11.48;100.00;99219.34;4984342;28;20794;-67
2022/10/05 08:23:14;;;;;;;0.00;0.00;;;;;;;11.51;100.00;99215.63;4983086;28;20301;-67
2022/10/05 08:25:50;;;;;;;0.00;0.00;;;;;;;11.61;100.00;99211.19;4986380;28;20659;-67
2022/10/05 08:28:21;;;;;;;0.00;0.00;;;;;;;11.68;100.00;99216.66;4982861;28;20235;-67
2022/10/05 08:30:54;;;;;;;0.00;0.00;;;;;;;11.85;100.00;99209.84;4986332;28;20288;-67
2022/10/05 08:33:26;;;;;;;0.00;0.00;;;;;;;11.84;100.00;99205.56;4983129;28;20248;-67
2022/10/05 08:36:04;;;;;;;0.00;0.00;;;;;;;12.03;100.00;99204.69;4986439;28;20317;-67
2022/10/05 08:38:33;;;;;;;0.00;0.00;;;;;;;12.14;100.00;99201.06;4983805;28;20243;-67
2022/10/05 08:41:39;;;;;;;0.00;0.00;;;;;;;12.26;100.00;99212.13;4982460;28;20242;-67
2022/10/05 08:44:43;;;;;;;0.00;0.00;;;;;;;12.33;100.00;99199.28;4956469;28;20253;-67
2022/10/05 08:47:18;;;;;;;0.00;0.00;;;;;;;12.45;100.00;99211.19;4983711;28;20763;-67
2022/10/05 08:50:07;;;;;;;0.00;0.00;;;;;;;12.61;100.00;99212.34;4985509;28;20262;-67
2022/10/05 08:52:53;;;;;;;0.00;0.00;;;;;;;12.74;100.00;99202.28;4983145;28;20247;-66
2022/10/05 08:55:47;;;;;;;0.00;0.00;;;;;;;12.94;100.00;99215.22;4983595;28;20318;-66
2022/10/05 08:58:42;;;;;;;0.00;0.00;;;;;;;13.02;100.00;99214.47;4967431;28;20217;-66
2022/10/05 09:01:18;;;;;;;0.00;0.00;;;;;;;13.16;100.00;99205.22;4982782;28;20642;-66
2022/10/05 09:04:18;;;;;;;0.00;0.00;;;;;;;13.26;100.00;99213.81;4985816;28;20297;-66
2022/10/05 09:07:00;;;;;;;0.00;0.00;;;;;;;13.38;100.00;99204.72;4977889;28;20236;-66
2022/10/05 09:09:56;;;;;;;0.00;0.00;;;;;;;13.53;100.00;99204.19;4983097;28;20326;-66
2022/10/05 09:12:54;;;;;;;0.00;0.00;;;;;;;13.66;100.00;99201.97;4983091;28;20752;-66
2022/10/05 09:15:46;;;;;;;0.00;0.00;;;;;;;13.77;100.00;99198.22;4983051;28;20243;-66
2022/10/05 09:18:40;;;;;;;0.00;0.00;;;;;;;13.93;100.00;99196.66;4982845;28;20245;-66
2022/10/05 09:21:14;;;;;;;0.00;0.00;;;;;;;14.12;100.00;99196.38;4982823;28;20235;-66
2022/10/05 09:23:45;;;;;;;0.00;0.00;;;;;;;14.26;100.00;99196.75;4970362;28;20594;-66
2022/10/05 09:26:42;;;;;;;0.00;0.00;;;;;;;14.41;100.00;99205.63;4987306;28;20292;-66
2022/10/05 09:29:33;;;;;;;0.00;0.00;;;;;;;14.49;100.00;99199.59;4987426;28;20231;-66
2022/10/05 09:32:26;;;;;;;0.00;0.00;;;;;;;14.63;100.00;99197.31;4986093;28;20719;-66
2022/10/05 09:35:15;;;;;;;0.00;0.00;;;;;;;14.79;100.00;99189.47;4989511;28;20245;-66
2022/10/05 09:38:08;;;;;;;0.00;0.00;;;;;;;14.87;100.00;99184.19;4987136;28;20323;-66
2022/10/05 09:41:12;;;;;;;0.00;0.00;;;;;;;14.97;100.00;99189.28;4987199;28;20321;-66
2022/10/05 09:44:06;;;;;;;0.00;0.00;;;;;;;15.12;100.00;99183.34;4986649;28;20285;-66
2022/10/05 09:46:50;;;;;;;0.00;0.00;;;;;;;15.25;100.00;99178.41;4986878;28;20252;-67
2022/10/05 09:49:38;;;;;;;0.00;0.00;;;;;;;15.37;100.00;99180.69;4987036;28;20438;-67
2022/10/05 09:52:46;;;;;;;0.00;0.00;;;;;;;15.46;100.00;99183.13;4985371;28;20291;-67
2022/10/05 09:56:00;;;;;;;0.00;0.00;;;;;;;15.56;100.00;99172.38;4953324;28;20240;-67
2022/10/05 09:59:08;;;;;;;0.00;0.00;;;;;;;15.63;100.00;99173.34;4933868;29;20313;-67
2022/10/05 10:01:57;;;;;;;0.00;0.00;;;;;;;15.79;100.00;99166.38;4975411;28;20327;-67
2022/10/05 10:04:34;;;;;;;0.00;0.00;;;;;;;15.94;100.00;99167.31;4986445;28;20334;-67
2022/10/05 10:07:31;;;;;;;0.00;0.00;;;;;;;16.00;100.00;99167.63;4986320;28;20260;-67
2022/10/05 10:10:28;;;;;;;0.00;0.00;;;;;;;16.13;100.00;99165.25;4988188;28;20245;-67
2022/10/05 10:13:14;;;;;;;0.00;0.00;;;;;;;16.18;100.00;99170.81;4989300;28;20322;-67
2022/10/05 10:16:03;;;;;;;0.00;0.00;;;;;;;16.26;100.00;99167.31;4986680;28;20283;-67
2022/10/05 10:18:48;;;;;;;0.00;0.00;;;;;;;16.36;100.00;99167.09;4986061;28;20295;-67
2022/10/05 10:21:38;;;;;;;0.00;0.00;;;;;;;16.43;100.00;99165.38;4985554;28;20595;-67
2022/10/05 10:24:16;;;;;;;0.00;0.00;;;;;;;16.67;100.00;99168.81;4986236;28;20753;-67
2022/10/05 10:27:15;;;;;;;0.00;0.00;;;;;;;16.77;98.99;99165.97;4988238;28;20229;-67
2022/10/05 10:30:08;;;;;;;0.00;0.00;;;;;;;16.93;97.06;99172.91;4985670;28;20229;-66
2022/10/05 10:33:10;;;;;;;0.00;0.00;;;;;;;16.95;96.31;99170.91;4956335;28;20305;-67
2022/10/05 10:35:39;;;;;;;0.00;0.00;;;;;;;17.14;94.31;99177.50;4985918;28;20607;-67
2022/10/05 10:38:22;;;;;;;0.00;0.00;;;;;;;17.23;92.83;99167.72;4985750;28;20225;-67
2022/10/05 10:41:07;;;;;;;0.00;0.00;;;;;;;17.28;91.07;99162.72;4988322;28;20632;-67
2022/10/05 10:43:53;;;;;;;0.00;0.00;;;;;;;17.41;90.51;99154.16;4985510;28;20304;-67
2022/10/05 10:46:39;;;;;;;0.00;0.00;;;;;;;17.52;91.21;99164.25;4985175;28;20239;-67
2022/10/05 10:49:31;;;;;;;0.00;0.00;;;;;;;17.61;89.51;99158.88;4985519;28;20239;-66
2022/10/05 10:52:10;;;;;;;0.00;0.00;;;;;;;17.70;88.37;99174.41;4984954;28;20644;-66
2022/10/05 10:55:15;;;;;;;0.00;0.00;;;;;;;17.78;86.33;99160.31;4988125;28;20227;-66
2022/10/05 10:57:58;;;;;;;0.00;0.00;;;;;;;17.90;86.49;99159.84;4986003;28;20240;-66
2022/10/05 11:00:40;;;;;;;0.00;0.00;;;;;;;17.98;88.86;99157.09;4986023;28;20298;-66
2022/10/05 11:03:39;;;;;;;0.00;0.00;;;;;;;18.04;87.20;99155.53;4984912;28;20235;-66
2022/10/05 11:06:25;;;;;;;0.00;0.00;;;;;;;18.22;85.89;99157.75;4984750;28;20233;-66
2022/10/05 11:09:24;;;;;;;0.00;0.00;;;;;;;18.31;82.76;99150.53;4988307;28;20224;-66
2022/10/05 11:12:34;;;;;;;0.00;0.00;;;;;;;18.46;82.06;99147.84;4984649;28;20250;-66
2022/10/05 11:15:11;;;;;;;0.00;0.00;;;;;;;18.52;82.42;99142.63;4982320;28;20232;-66
2022/10/05 11:17:55;;;;;;;0.00;0.00;;;;;;;18.60;82.34;99154.88;4988143;28;20234;-66
2022/10/05 11:21:06;;;;;;;0.00;0.00;;;;;;;18.69;82.83;99150.25;4985672;28;20237;-66
2022/10/05 11:23:58;;;;;;;0.00;0.00;;;;;;;18.82;81.83;99146.94;4960786;28;20226;-66
2022/10/05 11:26:40;;;;;;;0.00;0.00;;;;;;;18.94;79.19;99148.03;4985080;28;20247;-66
2022/10/05 11:29:37;;;;;;;0.00;0.00;;;;;;;18.95;79.63;99144.38;4984756;28;20279;-66
2022/10/05 11:32:48;;;;;;;0.00;0.00;;;;;;;19.01;80.64;99137.50;4982752;28;20286;-66
2022/10/05 11:35:46;;;;;;;0.00;0.00;;;;;;;19.18;78.66;99145.97;4983560;28;20227;-66
2022/10/05 11:38:38;;;;;;;0.00;0.00;;;;;;;19.23;77.88;99132.97;4984470;28;20278;-66
2022/10/05 11:41:32;;;;;;;0.00;0.00;;;;;;;19.27;77.03;99138.69;4984478;28;20244;-66
2022/10/05 11:44:32;;;;;;;0.00;0.00;;;;;;;19.32;78.57;99133.63;4984513;28;20237;-67
2022/10/05 11:47:03;;;;;;;0.00;0.00;;;;;;;19.35;77.59;99133.25;4982874;28;20233;-67
2022/10/05 11:49:39;;;;;;;0.00;0.00;;;;;;;19.37;78.74;99133.03;4986575;28;20299;-67
2022/10/05 11:52:12;;;;;;;0.00;0.00;;;;;;;19.55;77.11;99133.34;4983789;28;20233;-67
2022/10/05 11:55:12;;;;;;;0.00;0.00;;;;;;;19.67;77.35;99128.28;4987436;28;20725;-67
2022/10/05 11:57:47;;;;;;;0.00;0.00;;;;;;;19.77;75.01;99139.31;4971573;28;20230;-67
2022/10/05 12:00:18;;;;;;;0.00;0.00;;;;;;;19.85;74.97;99135.69;4983719;28;20229;-65
2022/10/05 12:02:59;;;;;;;0.00;0.00;;;;;;;19.93;73.73;99128.63;4986368;28;20290;-65
2022/10/05 12:05:33;;;;;;;0.00;0.00;;;;;;;19.98;73.78;99121.69;4984021;28;20239;-65
2022/10/05 12:08:16;;;;;;;0.00;0.00;;;;;;;19.99;74.49;99123.31;4984019;28;20244;-65
2022/10/05 12:10:51;;;;;;;0.00;0.00;;;;;;;20.04;75.68;99125.38;4986525;28;20627;-65
2022/10/05 12:13:32;;;;;;;0.00;0.00;;;;;;;20.03;74.54;99116.59;4982649;28;21260;-65
2022/10/05 12:16:07;;;;;;;0.00;0.00;;;;;;;20.08;73.84;99109.91;4983148;28;20304;-65
2022/10/05 12:18:58;;;;;;;0.00;0.00;;;;;;;20.11;77.37;99114.78;4985972;28;20236;-65
2022/10/05 12:21:32;;;;;;;0.00;0.00;;;;;;;20.29;72.74;99112.38;4981299;28;20635;-65
2022/10/05 12:24:02;;;;;;;0.00;0.00;;;;;;;20.42;72.52;99106.25;4984253;28;20710;-65
2022/10/05 12:26:34;;;;;;;0.00;0.00;;;;;;;20.39;73.40;99111.97;4986286;28;20241;-65
2022/10/05 12:29:12;;;;;;;0.00;0.00;;;;;;;20.40;73.08;99110.94;4983302;28;20245;-66
2022/10/05 12:31:49;;;;;;;0.00;0.00;;;;;;;20.45;74.15;99105.84;4985176;28;20237;-66
2022/10/05 12:34:26;;;;;;;0.00;0.00;;;;;;;20.56;75.02;99106.25;4983698;28;20234;-66